sensor_id;sensor_type;location;lat;lon;timestamp;P1;durP1;ratioP1;P2;durP2;ratioP2
7142;SDS011;3613;48.902;9.204;2023-02-28T00:00:34;3.70;;;3.13;;
7142;SDS011;3613;48.902;9.204;2023-02-28T00:03:01;5.05;;;3.25;;
7142;SDS011;3613;48.902;9.204;2023-02-28T00:05:27;5.00;;;3.57;;
7142;SDS011;3613;48.902;9.204;2023-02-28T00:07:53;5.25;;;3.35;;
7142;SDS011;3613;48.902;9.204;2023-02-28T00:10:20;4.53;;;3.55;;
7142;SDS011;3613;48.902;9.204;2023-02-28T00:12:48;5.38;;;3.70;;
7142;SDS011;3613;48.902;9.204;2023-02-28T00:15:18;5.43;;;3.50;;
7142;SDS011;3613;48.902;9.204;2023-02-28T00:17:43;4.38;;;3.58;;
7142;SDS011;3613;48.902;9.204;2023-02-28T00:20:10;6.67;;;3.63;;
7142;SDS011;3613;48.902;9.204;2023-02-28T00:22:40;5.57;;;3.05;;
7142;SDS011;3613;48.902;9.204;2023-02-28T00:25:08;5.40;;;3.63;;
7142;SDS011;3613;48.902;9.204;2023-02-28T00:27:35;3.90;;;3.60;;
7142;SDS011;3613;48.902;9.204;2023-02-28T00:30:02;4.78;;;3.13;;
7142;SDS011;3613;48.902;9.204;2023-02-28T00:32:29;4.43;;;3.17;;
7142;SDS011;3613;48.902;9.204;2023-02-28T00:34:55;4.17;;;3.60;;
7142;SDS011;3613;48.902;9.204;2023-02-28T00:37:21;3.63;;;3.33;;
7142;SDS011;3613;48.902;9.204;2023-02-28T00:39:49;7.67;;;4.07;;
7142;SDS011;3613;48.902;9.204;2023-02-28T00:42:15;4.53;;;3.60;;
7142;SDS011;3613;48.902;9.204;2023-02-28T00:44:40;3.93;;;3.20;;
7142;SDS011;3613;48.902;9.204;2023-02-28T00:47:08;5.07;;;3.97;;
7142;SDS011;3613;48.902;9.204;2023-02-28T00:49:34;4.83;;;3.80;;
7142;SDS011;3613;48.902;9.204;2023-02-28T00:52:02;4.13;;;3.63;;
7142;SDS011;3613;48.902;9.204;2023-02-28T00:54:28;5.65;;;4.10;;
7142;SDS011;3613;48.902;9.204;2023-02-28T00:56:54;4.50;;;3.77;;
7142;SDS011;3613;48.902;9.204;2023-02-28T00:59:19;5.00;;;3.57;;
7142;SDS011;3613;48.902;9.204;2023-02-28T01:01:49;5.45;;;3.88;;
7142;SDS011;3613;48.902;9.204;2023-02-28T01:04:15;5.32;;;4.00;;
7142;SDS011;3613;48.902;9.204;2023-02-28T01:06:42;8.43;;;5.13;;
7142;SDS011;3613;48.902;9.204;2023-02-28T01:09:13;5.50;;;3.83;;
7142;SDS011;3613;48.902;9.204;2023-02-28T01:11:39;7.07;;;3.97;;
7142;SDS011;3613;48.902;9.204;2023-02-28T01:14:09;6.45;;;4.13;;
7142;SDS011;3613;48.902;9.204;2023-02-28T01:16:37;6.72;;;3.92;;
7142;SDS011;3613;48.902;9.204;2023-02-28T01:19:05;6.77;;;4.37;;
7142;SDS011;3613;48.902;9.204;2023-02-28T01:21:31;4.93;;;4.40;;
7142;SDS011;3613;48.902;9.204;2023-02-28T01:23:59;5.95;;;4.40;;
7142;SDS011;3613;48.902;9.204;2023-02-28T01:26:25;4.65;;;3.92;;
7142;SDS011;3613;48.902;9.204;2023-02-28T01:28:52;6.20;;;4.53;;
7142;SDS011;3613;48.902;9.204;2023-02-28T01:31:18;6.53;;;4.00;;
7142;SDS011;3613;48.902;9.204;2023-02-28T01:33:48;5.57;;;3.90;;
7142;SDS011;3613;48.902;9.204;2023-02-28T01:36:15;5.82;;;4.15;;
7142;SDS011;3613;48.902;9.204;2023-02-28T01:38:45;3.78;;;3.40;;
7142;SDS011;3613;48.902;9.204;2023-02-28T01:46:16;5.53;;;4.05;;
7142;SDS011;3613;48.902;9.204;2023-02-28T01:51:16;4.90;;;3.55;;
7142;SDS011;3613;48.902;9.204;2023-02-28T01:53:51;5.85;;;4.20;;
7142;SDS011;3613;48.902;9.204;2023-02-28T01:56:23;4.90;;;3.95;;
7142;SDS011;3613;48.902;9.204;2023-02-28T01:58:54;5.50;;;4.05;;
7142;SDS011;3613;48.902;9.204;2023-02-28T02:01:23;5.57;;;3.97;;
7142;SDS011;3613;48.902;9.204;2023-02-28T02:03:55;5.13;;;3.65;;
7142;SDS011;3613;48.902;9.204;2023-02-28T02:06:37;5.45;;;4.50;;
7142;SDS011;3613;48.902;9.204;2023-02-28T02:09:07;7.82;;;4.72;;
7142;SDS011;3613;48.902;9.204;2023-02-28T02:11:36;6.05;;;4.18;;
7142;SDS011;3613;48.902;9.204;2023-02-28T02:14:50;5.68;;;4.57;;
7142;SDS011;3613;48.902;9.204;2023-02-28T02:17:23;7.03;;;4.50;;
7142;SDS011;3613;48.902;9.204;2023-02-28T02:25:32;5.75;;;3.92;;
7142;SDS011;3613;48.902;9.204;2023-02-28T02:36:53;5.20;;;4.40;;
7142;SDS011;3613;48.902;9.204;2023-02-28T02:42:24;8.87;;;4.57;;
7142;SDS011;3613;48.902;9.204;2023-02-28T02:45:07;7.00;;;4.75;;
7142;SDS011;3613;48.902;9.204;2023-02-28T02:47:37;5.05;;;4.15;;
7142;SDS011;3613;48.902;9.204;2023-02-28T02:50:05;4.68;;;4.10;;
7142;SDS011;3613;48.902;9.204;2023-02-28T02:52:39;5.28;;;4.22;;
7142;SDS011;3613;48.902;9.204;2023-02-28T02:55:10;5.25;;;4.45;;
7142;SDS011;3613;48.902;9.204;2023-02-28T03:00:17;6.53;;;4.65;;
7142;SDS011;3613;48.902;9.204;2023-02-28T03:02:48;5.50;;;4.13;;
7142;SDS011;3613;48.902;9.204;2023-02-28T03:05:35;5.55;;;4.70;;
7142;SDS011;3613;48.902;9.204;2023-02-28T03:08:11;5.97;;;5.03;;
7142;SDS011;3613;48.902;9.204;2023-02-28T03:10:38;6.27;;;5.17;;
7142;SDS011;3613;48.902;9.204;2023-02-28T03:24:08;10.20;;;4.90;;
7142;SDS011;3613;48.902;9.204;2023-02-28T03:26:37;6.82;;;4.90;;
7142;SDS011;3613;48.902;9.204;2023-02-28T03:32:04;6.53;;;4.53;;
7142;SDS011;3613;48.902;9.204;2023-02-28T03:34:33;4.90;;;4.22;;
7142;SDS011;3613;48.902;9.204;2023-02-28T03:37:07;8.00;;;4.57;;
7142;SDS011;3613;48.902;9.204;2023-02-28T03:39:47;6.38;;;4.00;;
7142;SDS011;3613;48.902;9.204;2023-02-28T03:42:21;5.43;;;4.07;;
7142;SDS011;3613;48.902;9.204;2023-02-28T03:44:58;4.97;;;3.97;;
7142;SDS011;3613;48.902;9.204;2023-02-28T03:47:39;6.07;;;4.68;;
7142;SDS011;3613;48.902;9.204;2023-02-28T03:50:20;6.35;;;4.45;;
7142;SDS011;3613;48.902;9.204;2023-02-28T03:55:56;6.38;;;4.28;;
7142;SDS011;3613;48.902;9.204;2023-02-28T03:59:11;5.13;;;3.75;;
7142;SDS011;3613;48.902;9.204;2023-02-28T04:01:36;5.75;;;4.47;;
7142;SDS011;3613;48.902;9.204;2023-02-28T04:04:06;5.07;;;4.57;;
7142;SDS011;3613;48.902;9.204;2023-02-28T04:06:32;5.05;;;4.50;;
7142;SDS011;3613;48.902;9.204;2023-02-28T04:08:59;4.57;;;3.13;;
7142;SDS011;3613;48.902;9.204;2023-02-28T04:11:36;6.00;;;3.92;;
7142;SDS011;3613;48.902;9.204;2023-02-28T04:14:04;8.55;;;5.63;;
7142;SDS011;3613;48.902;9.204;2023-02-28T04:16:31;5.90;;;4.35;;
7142;SDS011;3613;48.902;9.204;2023-02-28T04:18:58;7.07;;;4.45;;
7142;SDS011;3613;48.902;9.204;2023-02-28T04:21:32;5.40;;;4.50;;
7142;SDS011;3613;48.902;9.204;2023-02-28T04:24:02;5.97;;;5.22;;
7142;SDS011;3613;48.902;9.204;2023-02-28T04:26:35;8.20;;;4.68;;
7142;SDS011;3613;48.902;9.204;2023-02-28T04:29:05;5.20;;;4.15;;
7142;SDS011;3613;48.902;9.204;2023-02-28T04:31:31;6.72;;;4.57;;
7142;SDS011;3613;48.902;9.204;2023-02-28T04:33:57;7.60;;;4.28;;
7142;SDS011;3613;48.902;9.204;2023-02-28T04:36:23;6.47;;;5.47;;
7142;SDS011;3613;48.902;9.204;2023-02-28T04:38:48;5.30;;;4.80;;
7142;SDS011;3613;48.902;9.204;2023-02-28T04:41:15;5.32;;;3.55;;
7142;SDS011;3613;48.902;9.204;2023-02-28T04:43:41;5.68;;;4.43;;
7142;SDS011;3613;48.902;9.204;2023-02-28T04:46:07;6.87;;;4.67;;
7142;SDS011;3613;48.902;9.204;2023-02-28T04:48:34;7.88;;;5.15;;
7142;SDS011;3613;48.902;9.204;2023-02-28T04:51:10;7.68;;;5.22;;
7142;SDS011;3613;48.902;9.204;2023-02-28T04:53:38;5.93;;;4.80;;
7142;SDS011;3613;48.902;9.204;2023-02-28T04:56:04;6.25;;;4.00;;
7142;SDS011;3613;48.902;9.204;2023-02-28T04:58:33;9.98;;;4.47;;
7142;SDS011;3613;48.902;9.204;2023-02-28T05:01:03;6.28;;;5.22;;
7142;SDS011;3613;48.902;9.204;2023-02-28T05:03:40;6.57;;;5.32;;
7142;SDS011;3613;48.902;9.204;2023-02-28T05:06:07;5.68;;;4.30;;
7142;SDS011;3613;48.902;9.204;2023-02-28T05:08:33;8.68;;;5.78;;
7142;SDS011;3613;48.902;9.204;2023-02-28T05:10:59;7.47;;;5.03;;
7142;SDS011;3613;48.902;9.204;2023-02-28T05:13:26;6.32;;;4.28;;
7142;SDS011;3613;48.902;9.204;2023-02-28T05:15:55;7.95;;;5.95;;
7142;SDS011;3613;48.902;9.204;2023-02-28T05:18:21;6.40;;;4.77;;
7142;SDS011;3613;48.902;9.204;2023-02-28T05:20:47;8.13;;;5.28;;
7142;SDS011;3613;48.902;9.204;2023-02-28T05:23:13;8.13;;;5.83;;
7142;SDS011;3613;48.902;9.204;2023-02-28T05:25:40;9.40;;;5.20;;
7142;SDS011;3613;48.902;9.204;2023-02-28T05:28:06;7.97;;;5.80;;
7142;SDS011;3613;48.902;9.204;2023-02-28T05:30:31;6.90;;;5.30;;
7142;SDS011;3613;48.902;9.204;2023-02-28T05:32:59;7.40;;;5.43;;
7142;SDS011;3613;48.902;9.204;2023-02-28T05:35:25;9.13;;;5.77;;
7142;SDS011;3613;48.902;9.204;2023-02-28T05:37:53;8.02;;;5.05;;
7142;SDS011;3613;48.902;9.204;2023-02-28T05:40:19;6.43;;;4.93;;
7142;SDS011;3613;48.902;9.204;2023-02-28T05:42:45;7.07;;;5.60;;
7142;SDS011;3613;48.902;9.204;2023-02-28T05:45:11;5.68;;;4.60;;
7142;SDS011;3613;48.902;9.204;2023-02-28T05:47:37;7.90;;;5.47;;
7142;SDS011;3613;48.902;9.204;2023-02-28T05:50:05;6.77;;;5.77;;
7142;SDS011;3613;48.902;9.204;2023-02-28T05:52:31;8.48;;;5.32;;
7142;SDS011;3613;48.902;9.204;2023-02-28T05:54:56;7.57;;;5.53;;
7142;SDS011;3613;48.902;9.204;2023-02-28T05:57:22;7.53;;;5.30;;
7142;SDS011;3613;48.902;9.204;2023-02-28T05:59:48;8.83;;;5.23;;
7142;SDS011;3613;48.902;9.204;2023-02-28T06:02:14;8.00;;;5.90;;
7142;SDS011;3613;48.902;9.204;2023-02-28T06:04:41;7.53;;;5.00;;
7142;SDS011;3613;48.902;9.204;2023-02-28T06:07:08;8.25;;;4.82;;
7142;SDS011;3613;48.902;9.204;2023-02-28T06:09:34;6.05;;;5.10;;
7142;SDS011;3613;48.902;9.204;2023-02-28T06:12:05;6.97;;;5.38;;
7142;SDS011;3613;48.902;9.204;2023-02-28T06:14:33;6.10;;;5.45;;
7142;SDS011;3613;48.902;9.204;2023-02-28T06:16:59;8.15;;;5.70;;
7142;SDS011;3613;48.902;9.204;2023-02-28T06:19:28;7.60;;;5.55;;
7142;SDS011;3613;48.902;9.204;2023-02-28T06:21:55;8.88;;;5.43;;
7142;SDS011;3613;48.902;9.204;2023-02-28T06:24:22;7.85;;;5.05;;
7142;SDS011;3613;48.902;9.204;2023-02-28T06:26:49;5.78;;;4.00;;
7142;SDS011;3613;48.902;9.204;2023-02-28T06:29:20;11.02;;;7.00;;
7142;SDS011;3613;48.902;9.204;2023-02-28T06:31:46;6.47;;;5.13;;
7142;SDS011;3613;48.902;9.204;2023-02-28T06:34:12;10.93;;;5.32;;
7142;SDS011;3613;48.902;9.204;2023-02-28T06:36:41;11.77;;;5.97;;
7142;SDS011;3613;48.902;9.204;2023-02-28T06:39:07;8.35;;;5.45;;
7142;SDS011;3613;48.902;9.204;2023-02-28T06:41:34;7.72;;;5.97;;
7142;SDS011;3613;48.902;9.204;2023-02-28T06:44:03;7.13;;;5.63;;
7142;SDS011;3613;48.902;9.204;2023-02-28T06:46:32;8.82;;;6.28;;
7142;SDS011;3613;48.902;9.204;2023-02-28T06:49:00;8.32;;;5.43;;
7142;SDS011;3613;48.902;9.204;2023-02-28T06:51:28;7.28;;;5.28;;
7142;SDS011;3613;48.902;9.204;2023-02-28T06:53:54;12.90;;;7.53;;
7142;SDS011;3613;48.902;9.204;2023-02-28T06:56:20;8.03;;;5.53;;
7142;SDS011;3613;48.902;9.204;2023-02-28T06:58:46;6.17;;;4.67;;
7142;SDS011;3613;48.902;9.204;2023-02-28T07:01:16;7.13;;;5.57;;
7142;SDS011;3613;48.902;9.204;2023-02-28T07:03:42;6.97;;;4.53;;
7142;SDS011;3613;48.902;9.204;2023-02-28T07:06:08;7.50;;;5.20;;
7142;SDS011;3613;48.902;9.204;2023-02-28T07:08:34;9.53;;;5.60;;
7142;SDS011;3613;48.902;9.204;2023-02-28T07:11:02;10.40;;;5.63;;
7142;SDS011;3613;48.902;9.204;2023-02-28T07:13:28;7.90;;;5.47;;
7142;SDS011;3613;48.902;9.204;2023-02-28T07:15:58;7.83;;;5.20;;
7142;SDS011;3613;48.902;9.204;2023-02-28T07:18:30;5.07;;;3.95;;
7142;SDS011;3613;48.902;9.204;2023-02-28T07:20:56;9.57;;;5.47;;
7142;SDS011;3613;48.902;9.204;2023-02-28T07:23:26;8.32;;;5.38;;
7142;SDS011;3613;48.902;9.204;2023-02-28T07:25:51;7.40;;;6.13;;
7142;SDS011;3613;48.902;9.204;2023-02-28T07:28:17;9.97;;;5.67;;
7142;SDS011;3613;48.902;9.204;2023-02-28T07:30:45;8.23;;;5.80;;
7142;SDS011;3613;48.902;9.204;2023-02-28T07:33:13;7.70;;;5.68;;
7142;SDS011;3613;48.902;9.204;2023-02-28T07:35:41;9.93;;;5.95;;
7142;SDS011;3613;48.902;9.204;2023-02-28T07:38:07;8.18;;;5.13;;
7142;SDS011;3613;48.902;9.204;2023-02-28T07:40:34;8.38;;;6.28;;
7142;SDS011;3613;48.902;9.204;2023-02-28T07:43:01;8.25;;;5.53;;
7142;SDS011;3613;48.902;9.204;2023-02-28T07:45:28;9.45;;;6.65;;
7142;SDS011;3613;48.902;9.204;2023-02-28T07:47:54;8.35;;;5.68;;
7142;SDS011;3613;48.902;9.204;2023-02-28T07:50:20;8.40;;;5.97;;
7142;SDS011;3613;48.902;9.204;2023-02-28T07:52:47;9.77;;;6.07;;
7142;SDS011;3613;48.902;9.204;2023-02-28T07:55:15;6.93;;;5.00;;
7142;SDS011;3613;48.902;9.204;2023-02-28T07:57:44;10.90;;;7.10;;
7142;SDS011;3613;48.902;9.204;2023-02-28T08:00:10;9.48;;;6.05;;
7142;SDS011;3613;48.902;9.204;2023-02-28T08:02:38;10.27;;;6.88;;
7142;SDS011;3613;48.902;9.204;2023-02-28T08:05:04;9.97;;;6.10;;
7142;SDS011;3613;48.902;9.204;2023-02-28T08:07:31;10.13;;;6.57;;
7142;SDS011;3613;48.902;9.204;2023-02-28T08:09:57;10.05;;;6.88;;
7142;SDS011;3613;48.902;9.204;2023-02-28T08:12:23;10.50;;;6.93;;
7142;SDS011;3613;48.902;9.204;2023-02-28T08:14:48;7.77;;;5.87;;
7142;SDS011;3613;48.902;9.204;2023-02-28T08:17:14;10.27;;;6.17;;
7142;SDS011;3613;48.902;9.204;2023-02-28T08:19:39;10.63;;;7.30;;
7142;SDS011;3613;48.902;9.204;2023-02-28T08:22:07;12.40;;;7.00;;
7142;SDS011;3613;48.902;9.204;2023-02-28T08:24:35;8.00;;;6.03;;
7142;SDS011;3613;48.902;9.204;2023-02-28T08:27:01;9.30;;;6.27;;
7142;SDS011;3613;48.902;9.204;2023-02-28T08:29:26;9.60;;;6.53;;
7142;SDS011;3613;48.902;9.204;2023-02-28T08:31:52;6.93;;;4.93;;
7142;SDS011;3613;48.902;9.204;2023-02-28T08:34:18;10.85;;;7.15;;
7142;SDS011;3613;48.902;9.204;2023-02-28T08:36:44;9.47;;;6.67;;
7142;SDS011;3613;48.902;9.204;2023-02-28T08:39:10;11.13;;;7.50;;
7142;SDS011;3613;48.902;9.204;2023-02-28T08:41:37;7.85;;;5.15;;
7142;SDS011;3613;48.902;9.204;2023-02-28T08:44:06;9.00;;;5.32;;
7142;SDS011;3613;48.902;9.204;2023-02-28T08:46:31;9.90;;;5.80;;
7142;SDS011;3613;48.902;9.204;2023-02-28T08:48:57;8.67;;;6.03;;
7142;SDS011;3613;48.902;9.204;2023-02-28T08:51:25;6.72;;;4.72;;
7142;SDS011;3613;48.902;9.204;2023-02-28T08:53:52;10.88;;;7.22;;
7142;SDS011;3613;48.902;9.204;2023-02-28T08:56:23;11.27;;;7.05;;
7142;SDS011;3613;48.902;9.204;2023-02-28T08:58:49;7.50;;;6.10;;
7142;SDS011;3613;48.902;9.204;2023-02-28T09:01:29;7.53;;;5.97;;
7142;SDS011;3613;48.902;9.204;2023-02-28T09:03:56;10.82;;;7.07;;
7142;SDS011;3613;48.902;9.204;2023-02-28T09:06:23;11.27;;;7.25;;
7142;SDS011;3613;48.902;9.204;2023-02-28T09:08:52;10.07;;;6.95;;
7142;SDS011;3613;48.902;9.204;2023-02-28T09:11:18;11.75;;;6.68;;
7142;SDS011;3613;48.902;9.204;2023-02-28T09:13:47;12.33;;;6.80;;
7142;SDS011;3613;48.902;9.204;2023-02-28T09:16:13;11.40;;;6.35;;
7142;SDS011;3613;48.902;9.204;2023-02-28T09:18:43;10.98;;;5.88;;
7142;SDS011;3613;48.902;9.204;2023-02-28T09:21:10;9.07;;;6.65;;
7142;SDS011;3613;48.902;9.204;2023-02-28T09:23:39;10.27;;;7.30;;
7142;SDS011;3613;48.902;9.204;2023-02-28T09:26:16;8.37;;;6.63;;
7142;SDS011;3613;48.902;9.204;2023-02-28T09:28:47;11.07;;;6.97;;
7142;SDS011;3613;48.902;9.204;2023-02-28T09:31:14;11.70;;;7.37;;
7142;SDS011;3613;48.902;9.204;2023-02-28T09:33:46;8.17;;;6.40;;
7142;SDS011;3613;48.902;9.204;2023-02-28T09:36:15;10.50;;;6.75;;
7142;SDS011;3613;48.902;9.204;2023-02-28T09:38:41;9.73;;;6.27;;
7142;SDS011;3613;48.902;9.204;2023-02-28T09:41:17;14.00;;;7.30;;
7142;SDS011;3613;48.902;9.204;2023-02-28T09:43:53;11.07;;;7.37;;
7142;SDS011;3613;48.902;9.204;2023-02-28T09:48:55;9.32;;;5.25;;
7142;SDS011;3613;48.902;9.204;2023-02-28T09:54:17;13.20;;;8.07;;
7142;SDS011;3613;48.902;9.204;2023-02-28T09:57:07;11.33;;;7.30;;
7142;SDS011;3613;48.902;9.204;2023-02-28T10:05:13;8.83;;;6.47;;
7142;SDS011;3613;48.902;9.204;2023-02-28T10:10:49;11.67;;;8.27;;
7142;SDS011;3613;48.902;9.204;2023-02-28T10:16:47;12.13;;;8.23;;
7142;SDS011;3613;48.902;9.204;2023-02-28T10:19:11;9.63;;;6.77;;
7142;SDS011;3613;48.902;9.204;2023-02-28T10:21:54;10.30;;;6.40;;
7142;SDS011;3613;48.902;9.204;2023-02-28T10:24:33;12.70;;;7.60;;
7142;SDS011;3613;48.902;9.204;2023-02-28T10:27:15;12.37;;;7.57;;
7142;SDS011;3613;48.902;9.204;2023-02-28T10:29:47;10.03;;;6.70;;
7142;SDS011;3613;48.902;9.204;2023-02-28T10:32:16;11.73;;;6.80;;
7142;SDS011;3613;48.902;9.204;2023-02-28T10:34:44;10.63;;;7.20;;
7142;SDS011;3613;48.902;9.204;2023-02-28T10:37:15;13.10;;;7.17;;
7142;SDS011;3613;48.902;9.204;2023-02-28T10:39:42;12.27;;;7.80;;
7142;SDS011;3613;48.902;9.204;2023-02-28T10:42:26;9.73;;;7.53;;
7142;SDS011;3613;48.902;9.204;2023-02-28T10:53:14;9.20;;;7.10;;
7142;SDS011;3613;48.902;9.204;2023-02-28T11:01:23;11.33;;;7.47;;
7142;SDS011;3613;48.902;9.204;2023-02-28T11:04:38;9.10;;;7.10;;
7142;SDS011;3613;48.902;9.204;2023-02-28T11:07:19;12.77;;;7.57;;
7142;SDS011;3613;48.902;9.204;2023-02-28T11:09:52;12.00;;;7.50;;
7142;SDS011;3613;48.902;9.204;2023-02-28T11:12:26;12.00;;;7.20;;
7142;SDS011;3613;48.902;9.204;2023-02-28T11:15:04;13.23;;;7.60;;
7142;SDS011;3613;48.902;9.204;2023-02-28T11:17:43;15.07;;;7.07;;
7142;SDS011;3613;48.902;9.204;2023-02-28T11:20:18;11.57;;;7.70;;
7142;SDS011;3613;48.902;9.204;2023-02-28T11:22:48;11.37;;;7.73;;
7142;SDS011;3613;48.902;9.204;2023-02-28T11:25:19;11.03;;;7.80;;
7142;SDS011;3613;48.902;9.204;2023-02-28T11:27:50;11.17;;;7.17;;
7142;SDS011;3613;48.902;9.204;2023-02-28T11:30:29;9.80;;;7.00;;
7142;SDS011;3613;48.902;9.204;2023-02-28T11:32:59;10.17;;;6.90;;
7142;SDS011;3613;48.902;9.204;2023-02-28T11:35:33;8.77;;;6.50;;
7142;SDS011;3613;48.902;9.204;2023-02-28T11:38:04;9.67;;;6.73;;
7142;SDS011;3613;48.902;9.204;2023-02-28T11:40:55;9.40;;;6.97;;
7142;SDS011;3613;48.902;9.204;2023-02-28T11:48:46;7.90;;;6.30;;
7142;SDS011;3613;48.902;9.204;2023-02-28T11:51:38;11.83;;;7.23;;
7142;SDS011;3613;48.902;9.204;2023-02-28T11:54:26;10.50;;;7.60;;
7142;SDS011;3613;48.902;9.204;2023-02-28T11:56:57;10.57;;;7.13;;
7142;SDS011;3613;48.902;9.204;2023-02-28T12:02:25;10.43;;;7.30;;
7142;SDS011;3613;48.902;9.204;2023-02-28T12:05:24;11.37;;;7.43;;
7142;SDS011;3613;48.902;9.204;2023-02-28T12:10:28;9.97;;;7.10;;
7142;SDS011;3613;48.902;9.204;2023-02-28T12:13:23;10.03;;;6.83;;
7142;SDS011;3613;48.902;9.204;2023-02-28T12:27:13;9.73;;;6.50;;
7142;SDS011;3613;48.902;9.204;2023-02-28T12:29:50;7.57;;;6.60;;
7142;SDS011;3613;48.902;9.204;2023-02-28T12:35:32;8.87;;;6.70;;
7142;SDS011;3613;48.902;9.204;2023-02-28T12:38:04;8.57;;;6.60;;
7142;SDS011;3613;48.902;9.204;2023-02-28T12:43:42;8.00;;;6.47;;
7142;SDS011;3613;48.902;9.204;2023-02-28T12:49:00;9.07;;;6.90;;
7142;SDS011;3613;48.902;9.204;2023-02-28T12:51:33;10.33;;;7.27;;
7142;SDS011;3613;48.902;9.204;2023-02-28T12:58:56;8.30;;;6.53;;
7142;SDS011;3613;48.902;9.204;2023-02-28T13:01:32;8.60;;;6.97;;
7142;SDS011;3613;48.902;9.204;2023-02-28T13:09:53;8.60;;;7.03;;
7142;SDS011;3613;48.902;9.204;2023-02-28T13:12:21;9.20;;;6.80;;
7142;SDS011;3613;48.902;9.204;2023-02-28T13:14:48;10.10;;;7.27;;
7142;SDS011;3613;48.902;9.204;2023-02-28T13:17:21;9.03;;;7.17;;
7142;SDS011;3613;48.902;9.204;2023-02-28T13:24:56;10.70;;;7.03;;
7142;SDS011;3613;48.902;9.204;2023-02-28T13:27:35;8.93;;;7.07;;
7142;SDS011;3613;48.902;9.204;2023-02-28T13:44:01;8.80;;;6.93;;
7142;SDS011;3613;48.902;9.204;2023-02-28T13:46:29;8.20;;;6.17;;
7142;SDS011;3613;48.902;9.204;2023-02-28T13:48:59;8.03;;;6.80;;
7142;SDS011;3613;48.902;9.204;2023-02-28T13:51:51;10.03;;;7.63;;
7142;SDS011;3613;48.902;9.204;2023-02-28T14:02:37;8.07;;;6.10;;
7142;SDS011;3613;48.902;9.204;2023-02-28T14:05:15;10.10;;;7.00;;
7142;SDS011;3613;48.902;9.204;2023-02-28T14:07:50;9.83;;;6.83;;
7142;SDS011;3613;48.902;9.204;2023-02-28T14:10:30;9.70;;;7.40;;
7142;SDS011;3613;48.902;9.204;2023-02-28T14:16:09;9.97;;;7.40;;
7142;SDS011;3613;48.902;9.204;2023-02-28T14:18:39;10.47;;;7.70;;
7142;SDS011;3613;48.902;9.204;2023-02-28T14:26:33;8.80;;;7.20;;
7142;SDS011;3613;48.902;9.204;2023-02-28T14:37:40;11.00;;;6.73;;
7142;SDS011;3613;48.902;9.204;2023-02-28T14:43:00;11.83;;;7.80;;
7142;SDS011;3613;48.902;9.204;2023-02-28T14:45:32;12.77;;;7.77;;
7142;SDS011;3613;48.902;9.204;2023-02-28T14:47:59;12.27;;;7.77;;
7142;SDS011;3613;48.902;9.204;2023-02-28T14:50:29;12.97;;;8.53;;
7142;SDS011;3613;48.902;9.204;2023-02-28T14:52:57;9.33;;;6.83;;
7142;SDS011;3613;48.902;9.204;2023-02-28T14:55:25;10.57;;;6.90;;
7142;SDS011;3613;48.902;9.204;2023-02-28T14:58:00;10.00;;;6.70;;
7142;SDS011;3613;48.902;9.204;2023-02-28T15:00:30;10.50;;;7.50;;
7142;SDS011;3613;48.902;9.204;2023-02-28T15:03:00;10.57;;;7.53;;
7142;SDS011;3613;48.902;9.204;2023-02-28T15:05:42;10.20;;;7.10;;
7142;SDS011;3613;48.902;9.204;2023-02-28T15:08:17;10.53;;;7.97;;
7142;SDS011;3613;48.902;9.204;2023-02-28T15:10:56;11.33;;;7.40;;
7142;SDS011;3613;48.902;9.204;2023-02-28T15:13:42;9.40;;;7.03;;
7142;SDS011;3613;48.902;9.204;2023-02-28T15:16:15;10.20;;;7.53;;
7142;SDS011;3613;48.902;9.204;2023-02-28T15:18:49;10.93;;;8.20;;
7142;SDS011;3613;48.902;9.204;2023-02-28T15:21:20;13.97;;;8.17;;
7142;SDS011;3613;48.902;9.204;2023-02-28T15:23:53;12.80;;;8.20;;
7142;SDS011;3613;48.902;9.204;2023-02-28T15:26:24;12.60;;;7.90;;
7142;SDS011;3613;48.902;9.204;2023-02-28T15:29:04;10.70;;;8.40;;
7142;SDS011;3613;48.902;9.204;2023-02-28T15:31:32;11.20;;;8.17;;
7142;SDS011;3613;48.902;9.204;2023-02-28T15:34:06;11.47;;;7.50;;
7142;SDS011;3613;48.902;9.204;2023-02-28T15:36:43;9.07;;;6.83;;
7142;SDS011;3613;48.902;9.204;2023-02-28T15:39:20;12.90;;;7.73;;
7142;SDS011;3613;48.902;9.204;2023-02-28T15:41:47;10.70;;;7.87;;
7142;SDS011;3613;48.902;9.204;2023-02-28T15:44:16;10.93;;;7.43;;
7142;SDS011;3613;48.902;9.204;2023-02-28T15:49:20;11.43;;;8.13;;
7142;SDS011;3613;48.902;9.204;2023-02-28T15:51:48;10.97;;;8.07;;
7142;SDS011;3613;48.902;9.204;2023-02-28T15:54:29;11.80;;;8.03;;
7142;SDS011;3613;48.902;9.204;2023-02-28T15:57:00;9.77;;;7.60;;
7142;SDS011;3613;48.902;9.204;2023-02-28T15:59:31;11.83;;;8.10;;
7142;SDS011;3613;48.902;9.204;2023-02-28T16:02:42;12.37;;;8.20;;
7142;SDS011;3613;48.902;9.204;2023-02-28T16:05:31;13.33;;;9.23;;
7142;SDS011;3613;48.902;9.204;2023-02-28T16:07:58;12.53;;;8.53;;
7142;SDS011;3613;48.902;9.204;2023-02-28T16:10:26;11.93;;;8.37;;
7142;SDS011;3613;48.902;9.204;2023-02-28T16:12:54;13.87;;;8.93;;
7142;SDS011;3613;48.902;9.204;2023-02-28T16:17:51;12.00;;;8.13;;
7142;SDS011;3613;48.902;9.204;2023-02-28T16:20:19;11.70;;;7.90;;
7142;SDS011;3613;48.902;9.204;2023-02-28T16:22:46;11.97;;;8.17;;
7142;SDS011;3613;48.902;9.204;2023-02-28T16:25:15;12.80;;;8.87;;
7142;SDS011;3613;48.902;9.204;2023-02-28T16:27:48;14.00;;;8.37;;
7142;SDS011;3613;48.902;9.204;2023-02-28T16:30:17;13.80;;;9.40;;
7142;SDS011;3613;48.902;9.204;2023-02-28T16:32:50;11.13;;;7.27;;
7142;SDS011;3613;48.902;9.204;2023-02-28T16:35:17;13.33;;;8.33;;
7142;SDS011;3613;48.902;9.204;2023-02-28T16:37:47;12.43;;;7.23;;
7142;SDS011;3613;48.902;9.204;2023-02-28T16:40:14;11.27;;;8.57;;
7142;SDS011;3613;48.902;9.204;2023-02-28T16:42:41;13.17;;;8.27;;
7142;SDS011;3613;48.902;9.204;2023-02-28T16:45:14;10.23;;;6.90;;
7142;SDS011;3613;48.902;9.204;2023-02-28T16:47:46;13.87;;;7.53;;
7142;SDS011;3613;48.902;9.204;2023-02-28T16:50:16;15.47;;;9.50;;
7142;SDS011;3613;48.902;9.204;2023-02-28T16:52:43;14.07;;;9.37;;
7142;SDS011;3613;48.902;9.204;2023-02-28T16:55:09;15.67;;;8.87;;
7142;SDS011;3613;48.902;9.204;2023-02-28T16:57:35;12.43;;;8.43;;
7142;SDS011;3613;48.902;9.204;2023-02-28T17:00:06;14.17;;;9.60;;
7142;SDS011;3613;48.902;9.204;2023-02-28T17:02:36;17.47;;;10.63;;
7142;SDS011;3613;48.902;9.204;2023-02-28T17:05:01;13.53;;;10.13;;
7142;SDS011;3613;48.902;9.204;2023-02-28T17:07:30;12.83;;;9.27;;
7142;SDS011;3613;48.902;9.204;2023-02-28T17:10:00;12.00;;;8.97;;
7142;SDS011;3613;48.902;9.204;2023-02-28T17:12:33;14.47;;;9.37;;
7142;SDS011;3613;48.902;9.204;2023-02-28T17:15:02;13.17;;;8.77;;
7142;SDS011;3613;48.902;9.204;2023-02-28T17:17:27;13.23;;;9.13;;
7142;SDS011;3613;48.902;9.204;2023-02-28T17:19:54;15.17;;;9.50;;
7142;SDS011;3613;48.902;9.204;2023-02-28T17:22:19;14.03;;;9.30;;
7142;SDS011;3613;48.902;9.204;2023-02-28T17:24:45;14.13;;;9.80;;
7142;SDS011;3613;48.902;9.204;2023-02-28T17:27:11;14.50;;;9.60;;
7142;SDS011;3613;48.902;9.204;2023-02-28T17:29:38;14.43;;;9.50;;
7142;SDS011;3613;48.902;9.204;2023-02-28T17:32:06;13.87;;;9.53;;
7142;SDS011;3613;48.902;9.204;2023-02-28T17:34:32;15.23;;;10.60;;
7142;SDS011;3613;48.902;9.204;2023-02-28T17:37:00;15.40;;;10.70;;
7142;SDS011;3613;48.902;9.204;2023-02-28T17:39:26;14.00;;;10.10;;
7142;SDS011;3613;48.902;9.204;2023-02-28T17:41:54;19.30;;;10.83;;
7142;SDS011;3613;48.902;9.204;2023-02-28T17:44:21;13.20;;;9.70;;
7142;SDS011;3613;48.902;9.204;2023-02-28T17:46:51;17.83;;;10.30;;
7142;SDS011;3613;48.902;9.204;2023-02-28T17:49:18;16.90;;;9.67;;
7142;SDS011;3613;48.902;9.204;2023-02-28T17:51:47;13.83;;;10.20;;
7142;SDS011;3613;48.902;9.204;2023-02-28T17:54:13;15.47;;;10.63;;
7142;SDS011;3613;48.902;9.204;2023-02-28T17:56:39;14.53;;;9.53;;
7142;SDS011;3613;48.902;9.204;2023-02-28T17:59:05;15.00;;;9.93;;
7142;SDS011;3613;48.902;9.204;2023-02-28T18:01:31;15.90;;;10.57;;
7142;SDS011;3613;48.902;9.204;2023-02-28T18:03:59;14.90;;;9.73;;
7142;SDS011;3613;48.902;9.204;2023-02-28T18:06:26;17.10;;;10.33;;
7142;SDS011;3613;48.902;9.204;2023-02-28T18:08:56;12.87;;;9.60;;
7142;SDS011;3613;48.902;9.204;2023-02-28T18:11:22;13.90;;;10.03;;
7142;SDS011;3613;48.902;9.204;2023-02-28T18:14:05;15.50;;;10.43;;
7142;SDS011;3613;48.902;9.204;2023-02-28T18:16:32;16.97;;;11.33;;
7142;SDS011;3613;48.902;9.204;2023-02-28T18:18:59;17.27;;;10.70;;